createdAt,value
2023-01-02T00:00:17.416Z,994.99
2023-01-02T00:01:13.909Z,994.97
2023-01-02T00:02:13.242Z,994.95
2023-01-02T00:03:13.748Z,994.93
2023-01-02T00:04:13.802Z,994.89
2023-01-02T00:05:13.904Z,994.86
2023-01-02T00:06:13.214Z,994.88
2023-01-02T00:07:13.640Z,994.89
2023-01-02T00:08:14.316Z,994.94
2023-01-02T00:09:13.345Z,994.96
2023-01-02T00:10:13.303Z,994.92
2023-01-02T00:11:13.289Z,994.97
2023-01-02T00:12:13.245Z,994.95
2023-01-02T00:13:13.252Z,994.99
2023-01-02T00:14:13.591Z,995.01
2023-01-02T00:15:13.534Z,995.04
2023-01-02T00:16:13.917Z,994.98
2023-01-02T00:17:13.329Z,995.05
2023-01-02T00:18:13.412Z,994.98
2023-01-02T00:19:13.396Z,995.02
2023-01-02T00:20:13.327Z,995.04
2023-01-02T00:21:13.417Z,994.98
2023-01-02T00:22:13.363Z,994.96
2023-01-02T00:23:13.716Z,994.95
2023-01-02T00:24:13.792Z,994.97
2023-01-02T00:25:14.006Z,994.89
2023-01-02T00:26:13.000Z,994.96
2023-01-02T00:27:13.133Z,994.95
2023-01-02T00:28:13.206Z,994.91
2023-01-02T00:29:13.160Z,994.97
2023-01-02T00:30:13.337Z,995.01
2023-01-02T00:31:13.889Z,995.00
2023-01-02T00:32:13.358Z,994.98
2023-01-02T00:33:13.479Z,994.95
2023-01-02T00:34:13.551Z,994.99
2023-01-02T00:35:13.732Z,995.06
2023-01-02T00:36:14.037Z,995.08
2023-01-02T00:37:13.069Z,995.07
2023-01-02T00:38:12.980Z,995.09
2023-01-02T00:39:14.058Z,995.02
2023-01-02T00:40:13.383Z,995.04
2023-01-02T00:41:13.525Z,994.95
2023-01-02T00:42:13.489Z,995.01
2023-01-02T00:43:13.547Z,994.94
2023-01-02T00:44:13.493Z,994.89
2023-01-02T00:45:13.723Z,994.95
2023-01-02T00:46:13.930Z,994.97
2023-01-02T00:47:12.965Z,994.94
2023-01-02T00:48:12.944Z,994.94
2023-01-02T00:49:12.947Z,994.96
2023-01-02T00:50:13.013Z,994.94
2023-01-02T00:51:13.019Z,994.88
2023-01-02T00:52:13.066Z,994.84
2023-01-02T00:53:13.634Z,994.87
2023-01-02T00:54:13.980Z,994.84
2023-01-02T00:55:12.923Z,994.90
2023-01-02T00:56:12.937Z,994.86
2023-01-02T00:57:13.403Z,994.83
2023-01-02T00:58:13.398Z,994.96
2023-01-02T00:59:13.600Z,994.91
2023-01-02T01:00:18.411Z,994.75
2023-01-02T01:01:14.241Z,994.93
2023-01-02T01:02:13.707Z,994.91
2023-01-02T01:03:13.842Z,994.92
2023-01-02T01:04:14.147Z,994.95
2023-01-02T01:05:13.245Z,994.95
2023-01-02T01:06:13.631Z,994.98
2023-01-02T01:07:13.615Z,994.98
2023-01-02T01:08:13.878Z,994.88
2023-01-02T01:09:13.931Z,994.87
2023-01-02T01:10:13.009Z,994.83
2023-01-02T01:11:18.504Z,994.83
2023-01-02T01:12:13.570Z,994.83
2023-01-02T01:13:13.532Z,994.87
2023-01-02T01:14:13.882Z,994.87
2023-01-02T01:15:14.058Z,994.87
2023-01-02T01:16:13.242Z,994.86
2023-01-02T01:17:13.278Z,994.87
2023-01-02T01:18:13.221Z,994.88
2023-01-02T01:19:13.275Z,994.91
2023-01-02T01:20:13.633Z,994.91
2023-01-02T01:21:13.660Z,994.91
2023-01-02T01:22:13.828Z,994.91
2023-01-02T01:23:14.079Z,994.91
2023-01-02T01:24:13.044Z,994.92
2023-01-02T01:25:13.287Z,994.85
2023-01-02T01:26:13.485Z,994.86
2023-01-02T01:27:13.779Z,994.87
2023-01-02T01:28:14.246Z,994.83
2023-01-02T01:29:13.343Z,994.86
2023-01-02T01:30:13.783Z,994.81
2023-01-02T01:31:14.388Z,994.83
2023-01-02T01:32:13.839Z,994.86
2023-01-02T01:33:13.930Z,994.80
2023-01-02T01:34:13.190Z,994.84
2023-01-02T01:35:13.268Z,994.81
2023-01-02T01:36:13.556Z,994.81
2023-01-02T01:37:13.878Z,994.80
2023-01-02T01:38:13.809Z,994.79
2023-01-02T01:39:14.161Z,994.77
2023-01-02T01:40:13.101Z,994.76
2023-01-02T01:41:13.239Z,994.79
2023-01-02T01:42:13.279Z,994.76
2023-01-02T01:43:13.143Z,994.79
2023-01-02T01:44:13.443Z,994.79
2023-01-02T01:45:13.514Z,994.82
2023-01-02T01:46:13.672Z,994.84
2023-01-02T01:47:13.830Z,994.85
2023-01-02T01:48:13.774Z,994.87
2023-01-02T01:49:13.898Z,994.85
2023-01-02T01:50:13.795Z,994.85
2023-01-02T01:51:13.867Z,994.83
2023-01-02T01:52:14.081Z,994.86
2023-01-02T01:53:13.139Z,994.87
2023-01-02T01:54:13.614Z,994.87
2023-01-02T01:55:13.609Z,994.82
2023-01-02T01:56:13.716Z,994.80
2023-01-02T01:57:13.741Z,994.81
2023-01-02T01:58:14.055Z,994.86
2023-01-02T01:59:13.321Z,994.88
2023-01-02T02:00:13.486Z,994.89
2023-01-02T02:01:13.944Z,994.96
2023-01-02T02:02:13.357Z,994.92
2023-01-02T02:03:13.699Z,994.89
2023-01-02T02:04:14.135Z,994.85
2023-01-02T02:05:13.085Z,994.90
2023-01-02T02:06:13.040Z,994.91
2023-01-02T02:07:13.558Z,994.91
2023-01-02T02:08:13.909Z,994.91
2023-01-02T02:09:13.015Z,994.87
2023-01-02T02:10:13.051Z,994.91
2023-01-02T02:11:13.330Z,994.89
2023-01-02T02:12:13.990Z,994.88
2023-01-02T02:13:12.977Z,994.90
2023-01-02T02:14:13.086Z,994.96
2023-01-02T02:15:13.139Z,994.89
2023-01-02T02:16:13.077Z,994.92
2023-01-02T02:17:13.378Z,994.95
2023-01-02T02:18:13.586Z,994.87
2023-01-02T02:19:13.975Z,994.89
2023-01-02T02:20:13.000Z,994.89
2023-01-02T02:21:12.978Z,994.93
2023-01-02T02:22:13.231Z,994.85
2023-01-02T02:23:13.206Z,994.87
2023-01-02T02:24:13.163Z,994.85
2023-01-02T02:25:13.314Z,994.81
2023-01-02T02:26:13.297Z,994.80
2023-01-02T02:27:13.738Z,994.80
2023-01-02T02:28:13.902Z,994.86
2023-01-02T02:29:12.943Z,994.83
2023-01-02T02:30:13.850Z,994.80
2023-01-02T02:31:13.856Z,994.81
2023-01-02T02:32:13.749Z,994.76
2023-01-02T02:33:13.715Z,994.78
2023-01-02T02:34:14.075Z,994.86
2023-01-02T02:35:12.958Z,994.89
2023-01-02T02:36:13.769Z,994.81
2023-01-02T02:37:13.858Z,994.85
2023-01-02T02:38:13.813Z,994.89
2023-01-02T02:39:13.932Z,994.89
2023-01-02T02:40:12.781Z,994.87
2023-01-02T02:41:13.826Z,994.87
2023-01-02T02:42:14.093Z,994.83
2023-01-02T02:43:12.965Z,994.78
2023-01-02T02:44:12.808Z,994.75
2023-01-02T02:45:13.978Z,994.83
2023-01-02T02:46:13.055Z,994.79
2023-01-02T02:47:13.166Z,994.75
2023-01-02T02:48:13.111Z,994.75
2023-01-02T02:49:13.267Z,994.70
2023-01-02T02:50:13.345Z,994.75
2023-01-02T02:51:13.285Z,994.80
2023-01-02T02:52:13.318Z,994.74
2023-01-02T02:53:13.186Z,994.82
2023-01-02T02:54:13.141Z,994.77
2023-01-02T02:55:13.176Z,994.69
2023-01-02T02:56:13.238Z,994.78
2023-01-02T02:57:13.350Z,994.77
2023-01-02T02:58:13.773Z,994.74
2023-01-02T02:59:13.700Z,994.74
2023-01-02T03:00:13.884Z,994.77
2023-01-02T03:01:12.972Z,994.77
2023-01-02T03:02:13.359Z,994.79
2023-01-02T03:03:13.577Z,994.83
2023-01-02T03:04:13.691Z,994.82
2023-01-02T03:05:13.776Z,994.83
2023-01-02T03:06:14.220Z,994.83
2023-01-02T03:07:13.532Z,994.80
2023-01-02T03:08:13.866Z,994.79
2023-01-02T03:09:13.051Z,994.78
2023-01-02T03:10:13.089Z,994.77
2023-01-02T03:11:13.331Z,994.80
2023-01-02T03:12:13.343Z,994.80
2023-01-02T03:13:13.784Z,994.73
2023-01-02T03:14:13.712Z,994.63
2023-01-02T03:15:13.786Z,994.59
2023-01-02T03:16:14.028Z,994.55
2023-01-02T03:17:13.100Z,994.56
2023-01-02T03:18:12.981Z,994.55
2023-01-02T03:19:13.366Z,994.45
2023-01-02T03:20:13.437Z,994.49
2023-01-02T03:21:13.493Z,994.51
2023-01-02T03:22:13.410Z,994.52
2023-01-02T03:23:13.262Z,994.53
2023-01-02T03:24:13.143Z,994.49
2023-01-02T03:25:13.475Z,994.50
2023-01-02T03:26:13.437Z,994.41
2023-01-02T03:27:13.471Z,994.38
2023-01-02T03:28:13.748Z,994.45
2023-01-02T03:29:13.613Z,994.47
2023-01-02T03:30:13.510Z,994.42
2023-01-02T03:31:13.592Z,994.47
2023-01-02T03:32:13.537Z,994.60
2023-01-02T03:33:13.572Z,994.65
2023-01-02T03:34:13.762Z,994.65
2023-01-02T03:35:13.676Z,994.67
2023-01-02T03:36:13.629Z,994.58
2023-01-02T03:37:13.540Z,994.59
2023-01-02T03:38:13.775Z,994.54
2023-01-02T03:39:13.676Z,994.58
2023-01-02T03:40:13.735Z,994.62
2023-01-02T03:41:13.789Z,994.65
2023-01-02T03:42:13.726Z,994.74
2023-01-02T03:43:13.635Z,994.76
2023-01-02T03:44:14.092Z,994.81
2023-01-02T03:45:13.228Z,994.93
2023-01-02T03:46:13.294Z,994.94
2023-01-02T03:47:13.927Z,994.93
2023-01-02T03:48:13.029Z,994.92
2023-01-02T03:49:13.340Z,994.93
2023-01-02T03:50:13.586Z,994.82
2023-01-02T03:51:14.741Z,994.84
2023-01-02T03:52:13.820Z,994.95
2023-01-02T03:53:13.780Z,995.03
2023-01-02T03:54:13.889Z,995.03
2023-01-02T03:55:13.414Z,994.94
2023-01-02T03:56:13.375Z,994.94
2023-01-02T03:57:13.381Z,995.01
2023-01-02T03:58:13.492Z,994.99
2023-01-02T03:59:13.410Z,994.98
2023-01-02T04:00:13.409Z,994.97
2023-01-02T04:01:14.504Z,995.02
2023-01-02T04:02:14.141Z,994.94
2023-01-02T04:03:13.463Z,994.96
2023-01-02T04:04:14.425Z,994.94
2023-01-02T04:05:13.379Z,994.93
2023-01-02T04:06:13.578Z,994.92
2023-01-02T04:07:13.776Z,994.87
2023-01-02T04:08:13.751Z,994.89
2023-01-02T04:09:13.709Z,994.97
2023-01-02T04:10:18.647Z,994.95
2023-01-02T04:11:13.616Z,994.85
2023-01-02T04:12:13.825Z,994.92
2023-01-02T04:13:13.795Z,994.92
2023-01-02T04:14:13.873Z,994.92
2023-01-02T04:15:13.921Z,994.86
2023-01-02T04:16:13.120Z,994.84
2023-01-02T04:17:13.063Z,994.84
2023-01-02T04:18:13.025Z,994.93
2023-01-02T04:19:12.924Z,994.97
2023-01-02T04:20:12.824Z,994.95
2023-01-02T04:21:13.785Z,994.98
2023-01-02T04:22:13.677Z,995.02
2023-01-02T04:23:13.754Z,994.96
2023-01-02T04:24:13.736Z,994.99
2023-01-02T04:25:13.825Z,995.00
2023-01-02T04:26:14.122Z,995.03
2023-01-02T04:27:12.967Z,994.99
2023-01-02T04:28:12.960Z,995.01
2023-01-02T04:29:12.832Z,995.00
2023-01-02T04:30:14.056Z,995.06
2023-01-02T04:31:13.041Z,994.99
2023-01-02T04:32:12.956Z,994.99
2023-01-02T04:33:12.874Z,994.96
2023-01-02T04:34:14.148Z,994.92
2023-01-02T04:35:13.132Z,994.93
2023-01-02T04:36:13.143Z,994.87
2023-01-02T04:37:13.079Z,994.88
2023-01-02T04:38:13.103Z,994.92
2023-01-02T04:39:13.082Z,994.87
2023-01-02T04:40:13.025Z,994.86
2023-01-02T04:41:12.902Z,994.90
2023-01-02T04:42:12.870Z,994.87
2023-01-02T04:43:13.786Z,994.88
2023-01-02T04:44:13.735Z,994.85
2023-01-02T04:45:14.235Z,994.86
2023-01-02T04:46:13.202Z,994.79
2023-01-02T04:47:18.227Z,994.80
2023-01-02T04:48:13.552Z,994.82
2023-01-02T04:49:13.431Z,994.83
2023-01-02T04:50:13.365Z,994.79
2023-01-02T04:51:13.327Z,994.84
2023-01-02T04:52:13.348Z,994.82
2023-01-02T04:53:14.146Z,994.84
2023-01-02T04:54:13.052Z,994.82
2023-01-02T04:55:13.032Z,994.83
2023-01-02T04:56:12.996Z,994.83
2023-01-02T04:57:12.925Z,994.85
2023-01-02T04:58:13.151Z,994.80
2023-01-02T04:59:13.333Z,994.82
2023-01-02T05:00:13.216Z,994.83
2023-01-02T05:01:13.360Z,994.93
2023-01-02T05:02:13.559Z,994.92
2023-01-02T05:03:13.567Z,994.88
2023-01-02T05:04:13.715Z,994.86
2023-01-02T05:05:13.644Z,994.83
2023-01-02T05:06:13.617Z,994.85
2023-01-02T05:07:13.791Z,994.89
2023-01-02T05:08:16.309Z,994.83
2023-01-02T05:09:14.081Z,994.90
2023-01-02T05:10:14.146Z,994.88
2023-01-02T05:11:13.033Z,994.92
2023-01-02T05:12:12.965Z,994.94
2023-01-02T05:13:12.888Z,994.96
2023-01-02T05:14:12.789Z,995.05
2023-01-02T05:15:14.038Z,995.00
2023-01-02T05:16:12.958Z,995.00
2023-01-02T05:17:12.878Z,995.03
2023-01-02T05:18:12.869Z,995.03
2023-01-02T05:19:13.771Z,995.10
2023-01-02T05:20:13.736Z,995.01
2023-01-02T05:21:13.959Z,995.11
2023-01-02T05:22:12.904Z,995.10
2023-01-02T05:23:13.092Z,995.05
2023-01-02T05:24:13.252Z,995.12
2023-01-02T05:25:13.506Z,995.08
2023-01-02T05:26:13.636Z,995.12
2023-01-02T05:27:13.748Z,995.13
2023-01-02T05:28:13.723Z,995.10
2023-01-02T05:29:13.704Z,995.16
2023-01-02T05:30:13.887Z,995.16
2023-01-02T05:31:13.113Z,995.18
2023-01-02T05:32:13.542Z,995.22
2023-01-02T05:33:13.553Z,995.20
2023-01-02T05:34:13.577Z,995.19
2023-01-02T05:35:13.643Z,995.17
2023-01-02T05:36:13.652Z,995.06
2023-01-02T05:37:13.617Z,995.20
2023-01-02T05:38:13.806Z,995.10
2023-01-02T05:39:14.092Z,995.18
2023-01-02T05:40:13.003Z,995.16
2023-01-02T05:41:13.168Z,995.18
2023-01-02T05:42:13.170Z,995.19
2023-01-02T05:43:13.168Z,995.28
2023-01-02T05:44:13.243Z,995.28
2023-01-02T05:45:13.321Z,995.18
2023-01-02T05:46:13.445Z,995.22
2023-01-02T05:47:16.426Z,995.28
2023-01-02T05:48:13.866Z,995.24
2023-01-02T05:49:13.787Z,995.31
2023-01-02T05:50:13.691Z,995.27
2023-01-02T05:51:13.642Z,995.25
2023-01-02T05:52:13.614Z,995.29
2023-01-02T05:53:14.012Z,995.27
2023-01-02T05:54:12.835Z,995.24
2023-01-02T05:55:13.859Z,995.27
2023-01-02T05:56:14.082Z,995.30
2023-01-02T05:57:13.049Z,995.32
2023-01-02T05:58:13.095Z,995.38
2023-01-02T05:59:13.020Z,995.31
2023-01-02T06:00:13.123Z,995.34
2023-01-02T06:01:13.276Z,995.28
2023-01-02T06:02:13.712Z,995.33
2023-01-02T06:03:13.936Z,995.32
2023-01-02T06:04:19.328Z,995.30
2023-01-02T06:05:14.041Z,995.35
2023-01-02T06:06:13.004Z,995.35
2023-01-02T06:07:12.941Z,995.36
2023-01-02T06:08:12.881Z,995.33
2023-01-02T06:09:13.835Z,995.34
2023-01-02T06:10:13.707Z,995.35
2023-01-02T06:11:13.912Z,995.42
2023-01-02T06:12:12.880Z,995.43
2023-01-02T06:13:13.320Z,995.52
2023-01-02T06:14:13.383Z,995.43
2023-01-02T06:15:13.347Z,995.43
2023-01-02T06:16:13.601Z,995.49
2023-01-02T06:17:13.644Z,995.42
2023-01-02T06:18:13.572Z,995.47
2023-01-02T06:19:13.731Z,995.48
2023-01-02T06:20:13.797Z,995.49
2023-01-02T06:21:13.762Z,995.51
2023-01-02T06:22:13.702Z,995.48
2023-01-02T06:23:13.987Z,995.48
2023-01-02T06:24:12.910Z,995.51
2023-01-02T06:25:12.778Z,995.51
2023-01-02T06:26:13.756Z,995.49
2023-01-02T06:27:13.786Z,995.51
2023-01-02T06:28:13.740Z,995.44
2023-01-02T06:29:13.689Z,995.55
2023-01-02T06:30:13.618Z,995.52
2023-01-02T06:31:13.959Z,995.57
2023-01-02T06:32:13.261Z,995.49
2023-01-02T06:33:13.575Z,995.48
2023-01-02T06:34:13.450Z,995.58
2023-01-02T06:35:13.469Z,995.56
2023-01-02T06:36:13.430Z,995.57
2023-01-02T06:37:13.710Z,995.65
2023-01-02T06:38:13.674Z,995.58
2023-01-02T06:40:13.298Z,995.58
2023-01-02T06:41:13.110Z,995.64
2023-01-02T06:42:13.010Z,995.68
2023-01-02T06:43:12.985Z,995.63
2023-01-02T06:44:12.936Z,995.68
2023-01-02T06:45:18.053Z,995.69
2023-01-02T06:46:13.078Z,995.70
2023-01-02T06:47:13.130Z,995.68
2023-01-02T06:48:13.198Z,995.71
2023-01-02T06:49:13.472Z,995.70
2023-01-02T06:50:13.468Z,995.62
2023-01-02T06:51:13.659Z,995.74
2023-01-02T06:52:13.990Z,995.74
2023-01-02T06:53:12.914Z,995.71
2023-01-02T06:54:12.862Z,995.69
2023-01-02T06:55:13.807Z,995.69
2023-01-02T06:56:13.960Z,995.73
2023-01-02T06:57:13.132Z,995.73
2023-01-02T06:58:17.592Z,995.64
2023-01-02T06:59:13.520Z,995.70
2023-01-02T07:00:13.753Z,995.67
2023-01-02T07:01:13.751Z,995.75
2023-01-02T07:02:13.871Z,995.70
2023-01-02T07:03:12.913Z,995.78
2023-01-02T07:04:12.904Z,995.75
2023-01-02T07:05:12.772Z,995.77
2023-01-02T07:06:13.694Z,995.74
2023-01-02T07:07:14.061Z,995.73
2023-01-02T07:08:13.218Z,995.78
2023-01-02T07:40:13.311Z,996.03
2023-01-02T07:41:13.533Z,996.14
2023-01-02T07:42:13.552Z,996.09
2023-01-02T07:43:13.500Z,996.09
2023-01-02T07:44:13.435Z,996.10
2023-01-02T07:45:13.362Z,996.09
2023-01-02T07:46:13.417Z,996.12
2023-01-02T07:47:13.644Z,996.12
2023-01-02T07:48:13.625Z,996.19
2023-01-02T07:49:13.845Z,996.20
2023-01-02T07:50:13.981Z,996.23
2023-01-02T07:51:12.925Z,996.30
2023-01-02T07:52:12.903Z,996.28
2023-01-02T07:53:12.826Z,996.34
2023-01-02T07:54:13.709Z,996.37
2023-01-02T07:55:13.903Z,996.39
2023-01-02T07:56:13.076Z,996.40
2023-01-02T07:57:13.188Z,996.43
2023-01-02T07:58:13.135Z,996.48
2023-01-02T07:59:13.032Z,996.40
2023-01-02T08:00:12.954Z,996.53
2023-01-02T08:01:13.003Z,996.51
2023-01-02T08:02:13.554Z,996.55
2023-01-02T08:03:13.615Z,996.59
2023-01-02T08:04:14.028Z,996.63
2023-01-02T08:05:12.949Z,996.63
2023-01-02T08:06:13.244Z,996.62
2023-01-02T08:07:13.395Z,996.65
2023-01-02T08:08:13.293Z,996.64
2023-01-02T08:09:13.494Z,996.65
2023-01-02T08:10:13.560Z,996.64
2023-01-02T08:11:13.580Z,996.62
2023-01-02T08:12:13.626Z,996.59
2023-01-02T08:13:13.953Z,996.59
2023-01-02T08:14:18.358Z,996.63
2023-01-02T08:15:13.606Z,996.68
2023-01-02T08:16:13.565Z,996.69
2023-01-02T08:17:13.644Z,996.70
2023-01-02T08:18:13.732Z,996.75
2023-01-02T08:19:14.291Z,996.70
2023-01-02T08:20:13.409Z,996.75
2023-01-02T08:21:13.916Z,996.72
2023-01-02T08:22:13.394Z,996.76
2023-01-02T08:23:13.484Z,996.74
2023-01-02T08:24:13.834Z,996.76
2023-01-02T08:25:14.184Z,996.86
2023-01-02T08:26:13.066Z,996.85
2023-01-02T08:27:12.995Z,996.88
2023-01-02T08:28:13.218Z,996.88
2023-01-02T08:29:13.172Z,996.87
2023-01-02T08:30:13.043Z,996.93
2023-01-02T08:31:13.416Z,996.99
2023-01-02T08:32:13.924Z,996.96
2023-01-02T08:33:13.028Z,996.98
2023-01-02T08:34:12.989Z,997.03
2023-01-02T08:35:12.922Z,997.03
2023-01-02T08:36:12.835Z,997.11
2023-01-02T08:37:14.112Z,997.08
2023-01-02T08:38:13.002Z,997.07
2023-01-02T08:39:12.936Z,997.10
2023-01-02T08:40:12.849Z,997.12
2023-01-02T08:41:13.756Z,997.16
2023-01-02T08:42:13.756Z,997.16
2023-01-02T08:43:16.191Z,997.23
2023-01-02T08:44:13.568Z,997.21
2023-01-02T08:45:13.527Z,997.22
2023-01-02T08:46:13.832Z,997.21
2023-01-02T08:47:13.844Z,997.29
2023-01-02T08:48:20.251Z,997.29
2023-01-02T08:49:13.479Z,997.26
2023-01-02T08:50:13.557Z,997.28
2023-01-02T08:51:13.693Z,997.30
2023-01-02T08:52:13.589Z,997.33
2023-01-02T08:53:13.887Z,997.35
2023-01-02T08:54:12.900Z,997.40
2023-01-02T08:55:13.002Z,997.41
2023-01-02T08:56:13.008Z,997.41
2023-01-02T08:57:13.176Z,997.47
2023-01-02T08:58:13.319Z,997.44
2023-01-02T08:59:13.365Z,997.46
2023-01-02T09:00:13.291Z,997.48
2023-01-02T09:01:13.575Z,997.49
2023-01-02T09:02:14.124Z,997.51
2023-01-02T09:03:13.203Z,997.54
2023-01-02T09:04:13.925Z,997.58
2023-01-02T09:05:13.315Z,997.60
2023-01-02T09:06:18.112Z,997.64
2023-01-02T09:07:13.803Z,997.65
2023-01-02T09:08:14.263Z,997.71
2023-01-02T09:09:13.248Z,997.68
2023-01-02T09:10:13.358Z,997.62
2023-01-02T09:11:13.594Z,997.75
2023-01-02T09:12:13.599Z,997.78
2023-01-02T09:13:13.485Z,997.81
2023-01-02T09:14:13.709Z,997.84
2023-01-02T09:15:13.957Z,997.87
2023-01-02T09:16:13.158Z,997.89
2023-01-02T09:17:13.227Z,997.87
2023-01-02T09:18:13.265Z,997.83
2023-01-02T09:19:13.351Z,997.91
2023-01-02T09:20:13.346Z,997.99
2023-01-02T09:21:13.435Z,997.97
2023-01-02T09:22:13.336Z,998.02
2023-01-02T09:23:13.542Z,998.09
2023-01-02T09:24:13.381Z,998.10
2023-01-02T09:25:15.503Z,998.18
2023-01-02T09:26:12.999Z,998.17
2023-01-02T09:27:13.169Z,998.23
2023-01-02T09:28:13.094Z,998.33
2023-01-02T09:29:13.005Z,998.39
2023-01-02T09:30:13.261Z,998.43
2023-01-02T09:31:13.260Z,998.43
2023-01-02T09:32:13.449Z,998.49
2023-01-02T09:33:13.407Z,998.41
2023-01-02T09:34:13.309Z,998.48
2023-01-02T09:35:13.552Z,998.51
2023-01-02T09:36:13.482Z,998.46
2023-01-02T09:37:13.401Z,998.45
2023-01-02T09:38:13.490Z,998.51
2023-01-02T09:39:13.411Z,998.46
2023-01-02T09:40:13.338Z,998.55
2023-01-02T09:41:13.627Z,998.55
2023-01-02T09:42:13.582Z,998.58
2023-01-02T09:43:13.611Z,998.65
2023-01-02T09:44:13.553Z,998.66
2023-01-02T09:45:13.492Z,998.60
2023-01-02T09:46:13.491Z,998.63
2023-01-02T09:47:13.458Z,998.73
2023-01-02T09:48:13.556Z,998.66
2023-01-02T09:49:13.463Z,998.64
2023-01-02T09:50:13.277Z,998.70
2023-01-02T09:51:13.265Z,998.62
2023-01-02T09:52:13.119Z,998.70
2023-01-02T09:53:13.369Z,998.63
2023-01-02T09:54:13.653Z,998.62
2023-01-02T09:55:13.625Z,998.71
2023-01-02T09:56:19.346Z,998.72
2023-01-02T09:57:13.526Z,998.62
2023-01-02T09:58:13.528Z,998.76
2023-01-02T09:59:13.684Z,998.75
2023-01-02T10:00:13.911Z,998.84
2023-01-02T10:01:12.918Z,998.82
2023-01-02T10:02:12.931Z,998.88
2023-01-02T10:03:13.284Z,998.90
2023-01-02T10:04:13.265Z,998.92
2023-01-02T10:05:13.339Z,998.92
2023-01-02T10:06:13.343Z,998.95
2023-01-02T10:07:13.291Z,998.94
2023-01-02T10:08:13.348Z,998.96
2023-01-02T10:09:13.424Z,998.95
2023-01-02T10:10:13.370Z,998.96
2023-01-02T10:11:13.329Z,998.96
2023-01-02T10:12:13.238Z,998.89
2023-01-02T10:13:13.154Z,998.99
2023-01-02T10:14:20.796Z,999.00
2023-01-02T10:15:13.122Z,999.05
2023-01-02T10:16:13.353Z,999.04
2023-01-02T10:17:13.235Z,999.06
2023-01-02T10:18:13.451Z,999.06
2023-01-02T10:19:13.363Z,999.14
2023-01-02T10:20:15.643Z,999.13
2023-01-02T10:21:12.828Z,999.16
2023-01-02T10:22:14.666Z,999.20
2023-01-02T10:23:13.905Z,999.22
2023-01-02T10:24:12.972Z,999.19
2023-01-02T10:25:13.275Z,999.27
2023-01-02T10:26:13.552Z,999.27
2023-01-02T10:27:13.710Z,999.29
2023-01-02T10:28:14.080Z,999.26
2023-01-02T10:29:13.136Z,999.25
2023-01-02T10:30:12.946Z,999.27
2023-01-02T10:31:12.847Z,999.30
2023-01-02T10:32:12.755Z,999.28
2023-01-02T10:33:13.984Z,999.29
2023-01-02T10:34:13.247Z,999.30
2023-01-02T10:35:13.221Z,999.30
2023-01-02T10:36:13.180Z,999.31
2023-01-02T10:37:13.478Z,999.25
2023-01-02T10:38:13.727Z,999.29
2023-01-02T10:39:13.724Z,999.25
2023-01-02T10:40:13.625Z,999.28
2023-01-02T10:41:13.702Z,999.35
2023-01-02T10:42:15.108Z,999.26
2023-01-02T10:43:13.307Z,999.32
2023-01-02T10:44:13.571Z,999.24
2023-01-02T10:45:13.856Z,999.28
2023-01-02T10:46:13.949Z,999.37
2023-01-02T10:47:13.133Z,999.38
2023-01-02T10:48:13.365Z,999.27
2023-01-02T10:49:13.436Z,999.31
2023-01-02T10:50:13.330Z,999.36
2023-01-02T10:51:13.263Z,999.31
2023-01-02T10:52:13.370Z,999.37
2023-01-02T10:53:13.421Z,999.34
2023-01-02T10:54:13.241Z,999.38
2023-01-02T10:55:13.173Z,999.33
2023-01-02T10:56:13.416Z,999.33
2023-01-02T10:57:13.394Z,999.31
2023-01-02T10:58:13.305Z,999.38
2023-01-02T10:59:13.367Z,999.43
2023-01-02T11:00:13.256Z,999.42
2023-01-02T11:01:13.651Z,999.45
2023-01-02T11:02:13.479Z,999.39
2023-01-02T11:03:13.789Z,999.42
2023-01-02T11:04:13.783Z,999.37
2023-01-02T11:05:13.822Z,999.39
2023-01-02T11:06:25.940Z,999.41
2023-01-02T11:07:13.660Z,999.39
2023-01-02T11:08:13.644Z,999.46
2023-01-02T11:09:13.717Z,999.44
2023-01-02T11:10:13.747Z,999.46
2023-01-02T11:11:13.603Z,999.49
2023-01-02T11:12:13.725Z,999.48
2023-01-02T11:13:14.101Z,999.51
2023-01-02T11:14:13.020Z,999.52
2023-01-02T11:15:13.128Z,999.54
2023-01-02T11:16:13.116Z,999.51
2023-01-02T11:17:13.153Z,999.51
2023-01-02T11:18:13.080Z,999.47
2023-01-02T11:19:13.135Z,999.56
2023-01-02T11:20:13.112Z,999.56
2023-01-02T11:21:13.082Z,999.59
2023-01-02T11:22:13.090Z,999.60
2023-01-02T11:23:13.103Z,999.61
2023-01-02T11:24:13.467Z,999.59
2023-01-02T11:25:13.428Z,999.62
2023-01-02T11:26:13.701Z,999.57
2023-01-02T11:27:14.007Z,999.58
2023-01-02T11:28:12.959Z,999.68
2023-01-02T11:29:13.022Z,999.71
2023-01-02T11:30:13.204Z,999.70
2023-01-02T11:31:13.192Z,999.71
2023-01-02T11:32:13.295Z,999.67
2023-01-02T11:33:13.406Z,999.64
2023-01-02T11:34:13.629Z,999.68
2023-01-02T11:35:13.691Z,999.68
2023-01-02T11:36:13.665Z,999.70
2023-01-02T11:37:13.601Z,999.69
2023-01-02T11:38:13.691Z,999.68
2023-01-02T11:39:14.253Z,999.72
2023-01-02T11:40:13.395Z,999.67
2023-01-02T11:41:13.313Z,999.75
2023-01-02T11:42:13.440Z,999.80
2023-01-02T11:43:13.524Z,999.77
2023-01-02T11:44:18.760Z,999.80
2023-01-02T11:45:13.416Z,999.75
2023-01-02T11:46:13.366Z,999.80
2023-01-02T11:47:13.588Z,999.79
2023-01-02T11:48:13.711Z,999.81
2023-01-02T11:49:14.805Z,999.79
2023-01-02T11:50:13.750Z,999.84
2023-01-02T11:51:17.490Z,999.81
2023-01-02T11:52:14.661Z,999.85
2023-01-02T11:53:13.563Z,999.89
2023-01-02T11:54:13.451Z,999.89
2023-01-02T11:55:14.021Z,999.90
2023-01-02T11:56:13.249Z,999.82
2023-01-02T11:57:18.548Z,999.84
2023-01-02T11:58:12.971Z,999.81
2023-01-02T11:59:13.722Z,999.80
2023-01-02T12:00:13.694Z,999.75
2023-01-02T12:01:13.881Z,999.71
2023-01-02T12:02:12.977Z,999.70
2023-01-02T12:03:18.325Z,999.69
2023-01-02T12:04:13.703Z,999.75
2023-01-02T12:05:13.658Z,999.78
2023-01-02T12:06:13.585Z,999.77
2023-01-02T12:07:13.745Z,999.81
2023-01-02T12:08:13.738Z,999.84
2023-01-02T12:09:14.137Z,999.80
2023-01-02T12:10:13.215Z,999.89
2023-01-02T12:11:13.144Z,999.86
2023-01-02T12:12:13.159Z,999.88
2023-01-02T12:13:13.430Z,999.81
2023-01-02T12:14:13.502Z,999.82
2023-01-02T12:15:13.700Z,999.82
2023-01-02T12:16:14.146Z,999.82
2023-01-02T12:17:13.139Z,999.86
2023-01-02T12:18:13.207Z,999.84
2023-01-02T12:19:13.295Z,999.86
2023-01-02T12:20:13.264Z,999.88
2023-01-02T12:21:13.137Z,999.92
2023-01-02T12:22:13.189Z,999.92
2023-01-02T12:23:13.253Z,999.91
2023-01-02T12:24:13.428Z,999.97
2023-01-02T12:25:13.378Z,1000.01
2023-01-02T12:26:13.407Z,1000.05
2023-01-02T12:27:13.388Z,1000.09
2023-01-02T12:28:13.651Z,1000.09
2023-01-02T12:29:13.667Z,1000.08
2023-01-02T12:30:13.787Z,1000.05
2023-01-02T12:31:13.848Z,1000.04
2023-01-02T12:32:14.000Z,1000.00
2023-01-02T12:33:13.040Z,1000.08
2023-01-02T12:34:13.154Z,1000.05
2023-01-02T12:35:13.820Z,1000.05
2023-01-02T12:36:13.799Z,1000.06
2023-01-02T12:37:14.176Z,1000.11
2023-01-02T12:38:15.944Z,1000.09
2023-01-02T12:39:13.692Z,1000.09
2023-01-02T12:40:14.009Z,1000.12
2023-01-02T12:41:13.518Z,1000.16
2023-01-02T12:42:13.801Z,1000.17
2023-01-02T12:43:14.155Z,1000.21
2023-01-02T12:44:13.196Z,1000.21
2023-01-02T12:45:13.287Z,1000.21
2023-01-02T12:46:13.588Z,1000.14
2023-01-02T12:47:13.560Z,1000.22
2023-01-02T12:48:13.517Z,1000.14
2023-01-02T12:49:13.528Z,1000.20
2023-01-02T12:50:13.777Z,1000.17
2023-01-02T12:51:13.706Z,1000.17
2023-01-02T12:52:14.002Z,1000.26
2023-01-02T12:53:12.932Z,1000.24
2023-01-02T12:54:20.259Z,1000.34
2023-01-02T12:55:14.001Z,1000.38
2023-01-02T12:56:13.356Z,1000.40
2023-01-02T12:57:16.991Z,1000.38
2023-01-02T12:58:14.027Z,1000.36
2023-01-02T12:59:13.340Z,1000.37